createdAt,value
2022-10-22T00:00:33.757Z,100918.91
2022-10-22T00:03:38.320Z,100906.66
2022-10-22T00:06:45.741Z,100912.75
2022-10-22T00:09:50.044Z,100919.81
2022-10-22T00:12:54.470Z,100909.25
2022-10-22T00:15:59.709Z,100911.00
2022-10-22T00:19:06.702Z,100923.28
2022-10-22T00:22:11.168Z,100924.97
2022-10-22T00:25:15.909Z,100917.06
2022-10-22T00:28:20.100Z,100921.44
2022-10-22T00:31:24.260Z,100917.84
2022-10-22T00:34:28.720Z,100918.81
2022-10-22T00:37:33.531Z,100921.44
2022-10-22T00:40:38.199Z,100927.56
2022-10-22T00:44:32.691Z,100933.69
2022-10-22T00:47:43.963Z,100934.56
2022-10-22T00:51:02.875Z,100945.19
2022-10-22T00:54:09.258Z,100929.31
2022-10-22T00:57:13.581Z,100919.47
2022-10-22T01:00:21.073Z,100930.88
2022-10-22T01:03:25.934Z,100930.16
2022-10-22T01:06:34.482Z,100923.09
2022-10-22T01:09:51.984Z,100920.25
2022-10-22T01:13:34.379Z,100932.66
2022-10-22T01:17:01.469Z,100913.94
2022-10-22T01:20:43.243Z,100931.16
2022-10-22T01:24:13.594Z,100917.59
2022-10-22T01:27:26.562Z,100918.94
2022-10-22T01:30:31.447Z,100904.91
2022-10-22T01:33:40.094Z,100917.31
2022-10-22T01:36:46.964Z,100913.53
2022-10-22T01:39:51.866Z,100902.59
2022-10-22T01:43:08.042Z,100916.94
2022-10-22T01:46:14.187Z,100861.50
2022-10-22T01:49:31.588Z,100920.41
2022-10-22T01:52:38.651Z,100918.13
2022-10-22T01:56:27.026Z,100913.91
2022-10-22T01:59:37.562Z,100915.56
2022-10-22T02:02:41.984Z,100913.09
2022-10-22T02:05:58.030Z,100917.84
2022-10-22T02:09:05.240Z,100928.59
2022-10-22T02:12:10.827Z,100917.81
2022-10-22T02:15:21.374Z,100930.47
2022-10-22T02:18:30.837Z,100910.09
2022-10-22T02:21:36.515Z,100903.41
2022-10-22T02:24:41.199Z,100914.75
2022-10-22T02:27:53.181Z,100903.56
2022-10-22T02:31:08.210Z,100915.78
2022-10-22T02:34:17.473Z,100916.72
2022-10-22T02:37:22.564Z,100904.44
2022-10-22T02:40:27.930Z,100919.63
2022-10-22T02:43:32.350Z,100910.75
2022-10-22T02:46:36.586Z,100917.56
2022-10-22T02:49:40.987Z,100917.50
2022-10-22T02:52:45.720Z,100875.44
2022-10-22T02:55:52.278Z,100910.44
2022-10-22T02:58:56.240Z,100911.59
2022-10-22T03:02:00.446Z,100923.66
2022-10-22T03:05:06.107Z,100918.28
2022-10-22T03:08:10.764Z,100913.66
2022-10-22T03:11:15.163Z,100909.44
2022-10-22T03:14:19.182Z,100891.00
2022-10-22T03:17:23.759Z,100902.19
2022-10-22T03:20:28.228Z,100906.56
2022-10-22T03:23:33.836Z,100923.38
2022-10-22T03:26:40.888Z,100894.47
2022-10-22T03:29:47.620Z,100897.66
2022-10-22T03:32:54.754Z,100899.84
2022-10-22T03:35:59.270Z,100910.91
2022-10-22T03:39:05.961Z,100896.16
2022-10-22T03:42:10.275Z,100905.16
2022-10-22T03:45:14.647Z,100897.75
2022-10-22T03:48:19.203Z,100887.00
2022-10-22T03:51:23.468Z,100886.66
2022-10-22T03:54:30.303Z,100876.31
2022-10-22T03:57:34.293Z,100865.91
2022-10-22T04:00:40.754Z,100892.59
2022-10-22T04:03:45.156Z,100889.59
2022-10-22T04:06:49.229Z,100884.75
2022-10-22T04:09:55.773Z,100880.09
2022-10-22T04:13:00.106Z,100894.28
2022-10-22T04:16:12.126Z,100871.69
2022-10-22T04:19:16.267Z,100891.50
2022-10-22T04:22:21.077Z,100871.81
2022-10-22T04:25:25.330Z,100875.19
2022-10-22T04:28:30.132Z,100865.91
2022-10-22T04:31:34.536Z,100880.56
2022-10-22T04:34:42.040Z,100870.13
2022-10-22T04:37:46.433Z,100874.38
2022-10-22T04:40:50.538Z,100863.78
2022-10-22T04:43:59.196Z,100877.06
2022-10-22T04:47:03.572Z,100865.56
2022-10-22T04:50:09.082Z,100868.03
2022-10-22T04:53:16.421Z,100879.00
2022-10-22T04:56:26.822Z,100883.41
2022-10-22T04:59:31.366Z,100868.63
2022-10-22T05:02:35.600Z,100884.53
2022-10-22T05:05:40.272Z,100881.84
2022-10-22T05:08:44.811Z,100873.00
2022-10-22T05:11:51.753Z,100886.06
2022-10-22T05:14:56.954Z,100879.03
2022-10-22T05:18:01.138Z,100885.13
2022-10-22T05:21:09.077Z,100880.50
2022-10-22T05:24:19.671Z,100890.34
2022-10-22T05:27:26.688Z,100892.47
2022-10-22T05:30:32.440Z,100840.75
2022-10-22T05:33:37.082Z,100878.44
2022-10-22T05:36:41.520Z,100899.38
2022-10-22T05:39:45.548Z,100893.19
2022-10-22T05:42:50.215Z,100899.22
2022-10-22T05:45:56.553Z,100901.09
2022-10-22T05:49:03.338Z,100856.69
2022-10-22T05:52:07.670Z,100892.78
2022-10-22T05:55:12.174Z,100911.16
2022-10-22T05:58:17.009Z,100910.44
2022-10-22T06:01:23.583Z,100879.88
2022-10-22T06:04:30.236Z,100920.19
2022-10-22T06:07:36.113Z,100920.91
2022-10-22T06:10:44.229Z,100913.94
2022-10-22T06:13:49.888Z,100922.78
2022-10-22T06:16:54.166Z,100922.03
2022-10-22T06:20:01.323Z,100925.59
2022-10-22T06:23:07.578Z,100926.63
2022-10-22T06:26:12.960Z,100935.31
2022-10-22T06:29:17.044Z,100948.41
2022-10-22T06:32:21.060Z,100949.31
2022-10-22T06:35:25.467Z,100936.19
2022-10-22T06:38:29.581Z,100938.03
2022-10-22T06:41:34.065Z,100926.69
2022-10-22T06:44:38.361Z,100950.41
2022-10-22T06:47:45.149Z,100938.16
2022-10-22T06:50:51.312Z,100943.41
2022-10-22T06:53:56.906Z,100962.78
2022-10-22T06:57:04.221Z,100962.78
2022-10-22T07:00:09.396Z,100954.94
2022-10-22T07:03:17.266Z,100967.25
2022-10-22T07:06:25.907Z,100977.81
2022-10-22T07:09:30.330Z,100969.91
2022-10-22T07:12:36.461Z,100964.59
2022-10-22T07:15:42.801Z,100958.47
2022-10-22T07:18:48.949Z,100978.72
2022-10-22T07:21:54.173Z,100981.31
2022-10-22T07:25:05.175Z,100976.94
2022-10-22T07:28:12.315Z,100996.25
2022-10-22T07:31:19.816Z,100985.72
2022-10-22T07:34:24.368Z,100955.84
2022-10-22T07:37:28.769Z,100985.69
2022-10-22T07:40:34.038Z,100997.13
2022-10-22T07:43:38.434Z,100993.63
2022-10-22T07:46:44.405Z,101006.81
2022-10-22T07:49:52.801Z,100984.78
2022-10-22T07:52:58.212Z,101014.63
2022-10-22T07:56:03.649Z,100998.78
2022-10-22T07:59:08.225Z,100997.03
2022-10-22T08:02:15.844Z,101012.81
2022-10-22T08:05:21.118Z,101022.47
2022-10-22T08:08:28.343Z,101008.31
2022-10-22T08:11:34.998Z,101017.13
2022-10-22T08:14:41.442Z,101024.16
2022-10-22T08:17:45.912Z,101028.50
2022-10-22T08:20:50.228Z,101017.91
2022-10-22T08:23:54.353Z,101027.47
2022-10-22T08:26:59.143Z,101040.63
2022-10-22T08:30:04.841Z,101040.53
2022-10-22T08:33:08.943Z,101041.34
2022-10-22T08:36:13.275Z,101030.69
2022-10-22T08:39:17.819Z,101038.41
2022-10-22T08:43:00.963Z,101056.81
2022-10-22T08:46:29.261Z,101056.81
2022-10-22T08:49:41.220Z,101048.88
2022-10-22T08:52:52.012Z,101055.88
2022-10-22T08:55:57.888Z,101047.88
2022-10-22T08:59:20.613Z,101067.16
2022-10-22T09:02:34.424Z,101069.06
2022-10-22T09:05:57.227Z,101075.94
2022-10-22T09:09:03.687Z,101058.97
2022-10-22T09:12:09.354Z,101056.34
2022-10-22T09:15:18.579Z,101069.59
2022-10-22T09:18:40.731Z,101084.47
2022-10-22T09:22:02.315Z,101083.56
2022-10-22T09:25:28.866Z,101081.88
2022-10-22T09:28:33.346Z,101077.38
2022-10-22T09:31:40.461Z,101083.34
2022-10-22T09:34:49.559Z,101081.63
2022-10-22T09:37:57.865Z,101098.22
2022-10-22T09:41:06.515Z,101092.81
2022-10-22T09:44:15.970Z,101089.91
2022-10-22T09:48:00.656Z,101111.63
2022-10-22T09:51:25.268Z,101108.88
2022-10-22T09:54:33.282Z,101103.59
2022-10-22T09:57:39.809Z,101110.56
2022-10-22T10:00:49.768Z,101114.09
2022-10-22T10:03:54.284Z,101108.78
2022-10-22T10:06:59.237Z,101099.84
2022-10-22T10:10:21.230Z,101116.63
2022-10-22T10:13:47.592Z,101116.72
2022-10-22T10:17:10.089Z,101121.94
2022-10-22T10:21:03.353Z,101117.34
2022-10-22T10:24:29.138Z,101113.81
2022-10-22T10:27:37.917Z,101117.38
2022-10-22T10:31:12.257Z,101117.25
2022-10-22T10:34:19.178Z,101133.78
2022-10-22T10:37:29.112Z,101117.94
2022-10-22T10:40:42.106Z,101110.75
2022-10-22T10:43:52.685Z,101108.94
2022-10-22T10:47:16.925Z,101122.13
2022-10-22T10:50:42.817Z,101121.13
2022-10-22T10:54:07.687Z,101113.88
2022-10-22T10:57:35.770Z,101099.63
2022-10-22T11:00:56.716Z,101104.09
2022-10-22T11:04:19.252Z,101118.78
2022-10-22T11:07:34.937Z,101109.09
2022-10-22T11:10:51.849Z,101105.72
2022-10-22T11:14:32.017Z,101122.41
2022-10-22T11:17:44.116Z,101109.16
2022-10-22T11:21:13.066Z,101113.53
2022-10-22T11:24:37.182Z,101108.88
2022-10-22T11:31:26.657Z,101014.00
2022-10-22T11:34:51.381Z,101120.03
2022-10-22T11:37:57.785Z,101109.78
2022-10-22T11:41:12.006Z,101118.34
2022-10-22T11:48:16.423Z,101121.22
2022-10-22T11:51:40.636Z,101125.47
2022-10-22T11:54:46.507Z,101081.31
2022-10-22T11:57:50.300Z,101130.69
2022-10-22T12:00:55.294Z,101121.06
2022-10-22T12:03:59.965Z,101135.84
2022-10-22T12:07:05.201Z,101131.41
2022-10-22T12:10:21.794Z,101127.78
2022-10-22T12:13:32.193Z,101122.13
2022-10-22T12:17:02.760Z,101130.59
2022-10-22T12:20:14.006Z,101114.47
2022-10-22T12:23:18.534Z,101117.59
2022-10-22T12:26:28.677Z,101124.59
2022-10-22T12:29:34.072Z,101103.28
2022-10-22T12:32:41.923Z,101120.28
2022-10-22T12:35:48.647Z,101110.34
2022-10-22T12:38:52.670Z,101118.03
2022-10-22T12:41:57.512Z,101110.31
2022-10-22T12:45:01.499Z,101108.97
2022-10-22T12:48:15.935Z,101110.53
2022-10-22T12:51:21.791Z,101095.09
2022-10-22T12:54:32.173Z,101123.59
2022-10-22T12:57:36.715Z,101104.47
2022-10-22T13:00:42.467Z,101125.28
2022-10-22T13:03:51.896Z,101128.28
2022-10-22T13:07:39.016Z,101126.38
2022-10-22T13:10:51.862Z,101126.28
2022-10-22T13:14:03.664Z,101135.22
2022-10-22T13:17:09.910Z,101118.91
2022-10-22T13:20:24.140Z,101101.78
2022-10-22T13:23:30.705Z,101111.44
2022-10-22T13:26:38.306Z,101130.53
2022-10-22T13:29:43.370Z,101119.84
2022-10-22T13:32:54.042Z,101135.41
2022-10-22T13:35:58.647Z,101140.84
2022-10-22T13:39:04.813Z,101131.09
2022-10-22T13:42:14.185Z,101118.88
2022-10-22T13:45:19.920Z,101128.69
2022-10-22T13:48:26.856Z,101132.22
2022-10-22T13:51:36.125Z,101135.25
2022-10-22T13:54:40.328Z,101084.84
2022-10-22T13:57:44.791Z,101124.91
2022-10-22T14:00:56.545Z,101130.69
2022-10-22T14:04:02.879Z,101095.59
2022-10-22T14:07:15.515Z,101141.66
2022-10-22T14:10:25.151Z,101139.19
2022-10-22T14:13:29.098Z,101127.63
2022-10-22T14:16:35.227Z,101132.22
2022-10-22T14:19:40.572Z,101112.94
2022-10-22T14:22:47.494Z,101121.72
2022-10-22T14:25:52.118Z,101130.06
2022-10-22T14:29:12.090Z,101128.88
2022-10-22T14:32:22.235Z,101130.06
2022-10-22T14:35:27.364Z,101114.81
2022-10-22T14:38:31.735Z,101135.28
2022-10-22T14:41:36.172Z,101127.97
2022-10-22T14:44:43.824Z,101135.47
2022-10-22T14:47:48.557Z,101132.59
2022-10-22T14:50:55.864Z,101124.16
2022-10-22T14:54:00.583Z,101117.16
2022-10-22T14:57:06.075Z,101133.66
2022-10-22T15:00:14.294Z,101117.41
2022-10-22T15:03:18.959Z,101146.28
2022-10-22T15:06:23.663Z,101131.41
2022-10-22T15:09:27.883Z,101124.00
2022-10-22T15:12:33.678Z,101120.09
2022-10-22T15:15:40.491Z,101131.47
2022-10-22T15:18:44.982Z,101120.00
2022-10-22T15:21:50.617Z,101114.41
2022-10-22T15:24:54.496Z,101117.25
2022-10-22T15:28:04.649Z,101096.97
2022-10-22T15:31:15.291Z,101096.97
2022-10-22T15:34:26.635Z,101124.00
2022-10-22T15:37:31.572Z,101092.63
2022-10-22T15:40:37.427Z,101094.13
2022-10-22T15:43:41.929Z,101088.25
2022-10-22T15:46:46.294Z,101102.88
2022-10-22T15:49:50.859Z,101093.16
2022-10-22T15:52:56.452Z,101091.16
2022-10-22T15:56:00.719Z,101108.56
2022-10-22T15:59:05.292Z,101100.19
2022-10-22T16:02:11.899Z,101078.03
2022-10-22T16:05:16.461Z,101096.69
2022-10-22T16:08:21.039Z,101072.16
2022-10-22T16:11:26.716Z,101092.44
2022-10-22T16:14:30.913Z,101104.50
2022-10-22T16:17:34.859Z,101090.22
2022-10-22T16:20:43.569Z,101093.66
2022-10-22T16:23:48.356Z,101098.22
2022-10-22T16:26:53.898Z,101051.44
2022-10-22T16:29:57.856Z,101094.25
2022-10-22T16:33:06.699Z,101068.94
2022-10-22T16:36:12.529Z,101093.72
2022-10-22T16:39:17.169Z,101089.50
2022-10-22T16:42:21.333Z,101076.72
2022-10-22T16:45:25.802Z,101086.91
2022-10-22T16:48:30.781Z,101062.66
2022-10-22T16:51:35.507Z,101075.34
2022-10-22T16:54:39.519Z,101072.66
2022-10-22T16:57:43.822Z,101081.81
2022-10-22T17:00:48.197Z,101076.53
2022-10-22T17:03:52.614Z,101089.53
2022-10-22T17:06:57.704Z,101088.63
2022-10-22T17:10:04.311Z,101080.78
2022-10-22T17:13:08.673Z,101068.09
2022-10-22T17:16:16.404Z,101062.22
2022-10-22T17:19:22.398Z,101061.44
2022-10-22T17:22:27.207Z,101086.97
2022-10-22T17:25:45.399Z,101074.09
2022-10-22T17:28:52.520Z,101096.53
2022-10-22T17:31:58.240Z,101070.81
2022-10-22T17:35:02.830Z,101080.56
2022-10-22T17:38:11.288Z,101084.44
2022-10-22T17:41:19.386Z,101081.41
2022-10-22T17:44:23.595Z,101081.09
2022-10-22T17:47:28.516Z,101061.88
2022-10-22T17:50:33.012Z,101067.72
2022-10-22T17:53:40.633Z,101075.94
2022-10-22T17:56:44.807Z,101061.78
2022-10-22T17:59:50.506Z,101055.44
2022-10-22T18:02:55.280Z,101060.03
2022-10-22T18:06:10.821Z,101056.81
2022-10-22T18:09:19.719Z,101067.19
2022-10-22T18:12:24.088Z,101062.78
2022-10-22T18:15:28.440Z,101063.09
2022-10-22T18:18:33.040Z,101070.53
2022-10-22T18:21:37.825Z,101052.00
2022-10-22T18:24:43.111Z,101063.56
2022-10-22T18:27:47.602Z,101063.53
2022-10-22T18:30:52.150Z,101049.75
2022-10-22T18:33:57.086Z,101058.28
2022-10-22T18:37:01.604Z,101057.13
2022-10-22T18:40:08.123Z,101043.06
2022-10-22T18:43:13.298Z,101053.63
2022-10-22T18:46:17.857Z,101051.19
2022-10-22T18:49:22.286Z,101031.09
2022-10-22T18:52:27.107Z,101056.91
2022-10-22T18:55:31.126Z,101045.34
2022-10-22T18:58:39.710Z,101048.34
2022-10-22T19:01:43.921Z,101036.16
2022-10-22T19:04:48.868Z,101057.00
2022-10-22T19:07:56.659Z,101047.59
2022-10-22T19:11:02.277Z,101049.53
2022-10-22T19:14:06.348Z,101034.28
2022-10-22T19:17:11.020Z,101054.31
2022-10-22T19:20:16.079Z,101044.88
2022-10-22T19:23:23.111Z,101056.09
2022-10-22T19:26:29.414Z,101051.19
2022-10-22T19:29:33.987Z,101053.81
2022-10-22T19:32:38.106Z,101040.47
2022-10-22T19:35:42.628Z,101042.47
2022-10-22T19:38:50.906Z,101056.06
2022-10-22T19:41:55.340Z,101033.97
2022-10-22T19:44:59.414Z,101049.97
2022-10-22T19:48:03.663Z,101039.16
2022-10-22T19:51:11.009Z,101058.69
2022-10-22T19:54:19.353Z,101063.13
2022-10-22T19:57:23.405Z,101038.81
2022-10-22T20:00:30.141Z,101045.16
2022-10-22T20:03:34.388Z,101049.16
2022-10-22T20:06:38.669Z,101043.75
2022-10-22T20:09:43.320Z,101057.66
2022-10-22T20:12:47.244Z,101054.38
2022-10-22T20:15:54.309Z,101057.22
2022-10-22T20:19:04.867Z,101062.50
2022-10-22T20:22:09.086Z,101062.94
2022-10-22T20:25:13.833Z,101068.03
2022-10-22T20:28:18.590Z,101065.97
2022-10-22T20:31:24.942Z,101069.66
2022-10-22T20:34:29.601Z,101035.66
2022-10-22T20:37:36.611Z,101068.81
2022-10-22T20:40:40.748Z,101068.34
2022-10-22T20:43:47.996Z,101080.06
2022-10-22T20:46:53.173Z,101078.44
2022-10-22T20:49:57.457Z,101070.06
2022-10-22T20:53:01.748Z,101081.16
2022-10-22T20:56:06.155Z,101073.91
2022-10-22T20:59:13.031Z,101080.03
2022-10-22T21:02:17.389Z,101089.63
2022-10-22T21:05:22.055Z,101093.28
2022-10-22T21:08:26.252Z,101062.31
2022-10-22T21:11:30.454Z,101080.75
2022-10-22T21:14:35.450Z,101082.88
2022-10-22T21:17:41.053Z,101086.84
2022-10-22T21:20:45.252Z,101080.44
2022-10-22T21:23:50.923Z,101091.72
2022-10-22T21:26:55.082Z,101076.19
2022-10-22T21:29:59.553Z,101078.19
2022-10-22T21:33:03.925Z,101089.97
2022-10-22T21:36:09.918Z,101082.41
2022-10-22T21:39:14.710Z,101092.50
2022-10-22T21:42:18.947Z,101093.25
2022-10-22T21:45:23.621Z,101073.56
2022-10-22T21:48:27.767Z,101087.38
2022-10-22T21:51:34.458Z,101083.09
2022-10-22T21:54:38.680Z,101100.31
2022-10-22T21:57:43.148Z,101099.16
2022-10-22T22:00:55.270Z,101101.06
2022-10-22T22:03:59.381Z,101096.97
2022-10-22T22:07:04.148Z,101057.47
2022-10-22T22:10:08.875Z,101101.19
2022-10-22T22:13:13.371Z,101094.16
2022-10-22T22:16:22.477Z,101100.38
2022-10-22T22:19:29.735Z,101103.72
2022-10-22T22:22:34.299Z,101104.44
2022-10-22T22:25:38.671Z,101110.69
2022-10-22T22:28:42.799Z,101106.16
2022-10-22T22:31:47.920Z,101075.69
2022-10-22T22:34:51.861Z,101101.84
2022-10-22T22:38:00.236Z,101112.66
2022-10-22T22:41:04.858Z,101111.06
2022-10-22T22:44:09.432Z,101099.41
2022-10-22T22:47:13.704Z,101123.06
2022-10-22T22:50:18.213Z,101132.94
2022-10-22T22:53:22.472Z,101130.22
2022-10-22T22:56:28.847Z,101138.38
2022-10-22T22:59:33.255Z,101123.78
2022-10-22T23:02:37.155Z,101119.31
2022-10-22T23:05:41.341Z,101120.34
2022-10-22T23:08:46.009Z,101129.16
2022-10-22T23:11:51.521Z,101117.28
2022-10-22T23:14:55.692Z,101109.34
2022-10-22T23:17:59.782Z,101126.44
2022-10-22T23:21:06.309Z,101142.56
2022-10-22T23:24:13.462Z,101137.91
2022-10-22T23:27:17.781Z,101117.72
2022-10-22T23:30:22.002Z,101112.88
2022-10-22T23:33:26.628Z,101135.00
2022-10-22T23:36:31.005Z,101128.44
2022-10-22T23:39:35.634Z,101124.41
2022-10-22T23:45:48.645Z,101133.47
2022-10-22T23:48:54.640Z,101126.47
2022-10-22T23:51:58.604Z,101137.97
2022-10-22T23:55:02.858Z,101148.66
2022-10-22T23:58:07.817Z,101128.66
